Etusivu
METAR-TAF:

METAR-TAF

Lentoasemat :

Northeast Alabama Regional Airport

Gadsden, Alabama, Yhdysvallat

Leveyspiiri: 33-58N, Pituuspiiri: 086-05W, korkeus merenpinnasta: 173 m

Tämänhetkinen sää

Tämä raportti tehtiin 1 tunti ja 13 minuuttia sitten, kello 02.56 UTC
Tuuli 3 kn lännestä/lounaasta
Lämpötila 17°C
Kosteus 94%
Ilmanpaine 1018 hPa
Näkyvyys: 16.1 km
selkeää

METAR: KGAD 310256Z AUTO 24003KT 10SM CLR 17/16 A3007 RMK AO2 SLP185 T01720156 53010

Aika: 23:09 (04:09 UTC)


TAF: puuttuu

Säähavainnot ja -ennusteet yli 4000 lentoasemalta (METAR- ja TAF-raportit).

Käytössä olevat sääasemat on merkitty karttaan keltaisilla ja punaisilla pisteillä.

Aseta hiiri pisteen päälle nähdäksesi sääaseman nimen.

Klikkaa sitten nähdäksesi säähavainnot ja -ennusteet.

Kartan vaihtaminen: klikkaa mustalla rastilla varustettuja vihreitä pisteitä, niin voit zoomata sisään; viivalla varustettua vihreää pistettä, niin voit zoomata ulos tai vihreitä nuolia, niin pääset viereisille kartoille.


METAR-TAF: